createdAt,value
2019-03-01T00:01:14.862Z,1.87
2019-03-01T00:03:45.969Z,4.73
2019-03-01T00:06:41.186Z,3.33
2019-03-01T00:09:56.281Z,5.80
2019-03-01T00:13:07.157Z,2.83
2019-03-01T00:15:54.203Z,4.10
2019-03-01T00:18:48.976Z,1.00
2019-03-01T00:21:45.445Z,2.63
2019-03-01T00:24:34.489Z,2.37
2019-03-01T00:27:53.968Z,3.20
2019-03-01T00:31:17.535Z,1.90
2019-03-01T00:34:43.724Z,1.90
2019-03-01T00:37:43.554Z,1.60
2019-03-01T00:40:47.523Z,1.93
2019-03-01T00:43:54.713Z,1.37
2019-03-01T00:46:24.795Z,1.40
2019-03-01T00:48:55.322Z,5.30
2019-03-01T00:51:25.395Z,1.40
2019-03-01T00:53:56.439Z,2.83
2019-03-01T00:56:26.581Z,1.20
2019-03-01T00:58:57.691Z,5.00
2019-03-01T01:01:28.859Z,2.03
2019-03-01T01:04:00.005Z,2.17
2019-03-01T01:06:30.585Z,1.77
2019-03-01T01:09:01.076Z,2.50
2019-03-01T01:11:33.239Z,2.77
2019-03-01T01:14:04.600Z,1.23
2019-03-01T01:16:35.551Z,5.30
2019-03-01T01:19:06.292Z,1.30
2019-03-01T01:21:37.276Z,1.83
2019-03-01T01:24:07.961Z,0.90
2019-03-01T01:26:38.086Z,3.80
2019-03-01T01:29:08.572Z,1.27
2019-03-01T01:31:39.972Z,1.80
2019-03-01T01:34:10.918Z,5.03
2019-03-01T01:36:41.177Z,1.63
2019-03-01T01:39:13.226Z,1.03
2019-03-01T01:41:44.232Z,1.20
2019-03-01T01:44:14.882Z,1.27
2019-03-01T01:46:45.635Z,1.80
2019-03-01T01:49:16.580Z,1.00
2019-03-01T01:51:47.512Z,1.53
2019-03-01T01:54:17.994Z,2.03
2019-03-01T01:56:48.789Z,3.30
2019-03-01T01:59:19.267Z,2.17
2019-03-01T02:01:50.026Z,1.83
2019-03-01T02:04:20.950Z,2.67
2019-03-01T02:06:51.940Z,2.73
2019-03-01T02:09:27.386Z,1.43
2019-03-01T02:11:58.136Z,1.30
2019-03-01T02:14:29.490Z,2.70
2019-03-01T02:17:00.622Z,2.77
2019-03-01T02:19:31.820Z,4.67
2019-03-01T02:22:02.424Z,3.60
2019-03-01T02:24:33.467Z,2.77
2019-03-01T02:27:24.706Z,2.70
2019-03-01T02:29:54.963Z,1.50
2019-03-01T02:32:51.350Z,2.27
2019-03-01T02:35:24.137Z,3.57
2019-03-01T02:37:54.454Z,1.77
2019-03-01T02:40:25.010Z,4.80
2019-03-01T02:42:56.148Z,2.30
2019-03-01T02:45:27.506Z,2.30
2019-03-01T02:47:58.647Z,4.60
2019-03-01T02:50:29.550Z,3.50
2019-03-01T02:53:00.330Z,4.30
2019-03-01T02:55:31.496Z,19.20
2019-03-01T02:58:01.803Z,1.93
2019-03-01T03:00:32.895Z,2.47
2019-03-01T03:03:03.280Z,1.77
2019-03-01T03:05:36.266Z,2.10
2019-03-01T03:08:08.183Z,1.73
2019-03-01T03:10:39.193Z,1.03
2019-03-01T03:13:10.868Z,6.23
2019-03-01T03:15:45.935Z,1.00
2019-03-01T03:18:16.722Z,1.50
2019-03-01T03:20:47.672Z,4.10
2019-03-01T03:23:20.243Z,1.53
2019-03-01T03:25:50.990Z,1.90
2019-03-01T03:28:21.333Z,1.80
2019-03-01T03:30:51.876Z,2.90
2019-03-01T03:33:22.789Z,3.20
2019-03-01T03:35:53.945Z,1.40
2019-03-01T03:38:24.887Z,3.17
2019-03-01T03:40:55.819Z,2.17
2019-03-01T03:43:25.872Z,2.33
2019-03-01T03:45:56.701Z,6.00
2019-03-01T03:48:27.840Z,1.37
2019-03-01T03:50:58.585Z,4.62
2019-03-01T03:53:29.242Z,2.97
2019-03-01T03:55:59.433Z,6.33
2019-03-01T03:58:30.721Z,10.70
2019-03-01T04:01:01.674Z,1.57
2019-03-01T04:03:32.466Z,6.33
2019-03-01T04:06:03.368Z,2.77
2019-03-01T04:08:36.401Z,2.40
2019-03-01T04:11:07.074Z,1.10
2019-03-01T04:13:38.037Z,3.57
2019-03-01T04:16:08.627Z,9.97
2019-03-01T04:18:39.766Z,2.57
2019-03-01T04:21:11.725Z,10.60
2019-03-01T04:23:42.620Z,2.50
2019-03-01T04:26:13.205Z,2.77
2019-03-01T04:28:44.081Z,1.73
2019-03-01T04:31:14.496Z,3.57
2019-03-01T04:33:44.935Z,2.33
2019-03-01T04:36:15.749Z,3.07
2019-03-01T04:38:46.898Z,2.83
2019-03-01T04:41:18.246Z,1.70
2019-03-01T04:43:48.579Z,2.50
2019-03-01T04:46:19.391Z,2.83
2019-03-01T04:48:49.850Z,6.27
2019-03-01T04:51:21.196Z,4.27
2019-03-01T04:53:51.329Z,2.93
2019-03-01T04:56:22.285Z,1.73
2019-03-01T04:58:53.518Z,4.60
2019-03-01T05:01:24.604Z,3.13
2019-03-01T05:03:55.301Z,2.00
2019-03-01T05:06:25.651Z,4.20
2019-03-01T05:08:55.768Z,2.20
2019-03-01T05:11:26.052Z,8.43
2019-03-01T05:13:56.539Z,9.67
2019-03-01T05:16:26.944Z,3.73
2019-03-01T05:18:59.324Z,2.57
2019-03-01T05:21:29.645Z,3.90
2019-03-01T05:24:00.595Z,1.83
2019-03-01T05:26:30.942Z,8.10
2019-03-01T05:29:02.074Z,5.90
2019-03-01T05:31:32.548Z,3.40
2019-03-01T05:34:02.726Z,4.50
2019-03-01T05:36:33.266Z,2.13
2019-03-01T05:39:04.501Z,2.60
2019-03-01T05:41:35.764Z,3.03
2019-03-01T05:44:06.498Z,3.47
2019-03-01T05:46:37.018Z,3.43
2019-03-01T05:49:07.623Z,4.17
2019-03-01T05:51:38.507Z,7.43
2019-03-01T05:54:09.450Z,1.97
2019-03-01T05:56:40.394Z,1.97
2019-03-01T05:59:20.154Z,2.93
2019-03-01T06:02:21.818Z,4.97
2019-03-01T06:04:55.530Z,4.33
2019-03-01T06:08:09.986Z,5.47
2019-03-01T06:11:23.934Z,2.30
2019-03-01T06:14:23.111Z,3.07
2019-03-01T06:17:33.816Z,3.73
2019-03-01T06:20:32.000Z,3.77
2019-03-01T06:23:27.728Z,1.87
2019-03-01T06:26:30.120Z,4.27
2019-03-01T06:29:33.514Z,6.33
2019-03-01T06:32:39.424Z,3.13
2019-03-01T06:35:40.150Z,3.97
2019-03-01T06:38:58.414Z,3.53
2019-03-01T06:42:15.596Z,3.57
2019-03-01T06:45:22.532Z,3.03
2019-03-01T06:47:53.734Z,3.13
2019-03-01T06:50:38.394Z,4.10
2019-03-01T06:53:08.992Z,3.20
2019-03-01T06:55:46.634Z,2.57
2019-03-01T06:58:25.245Z,3.47
2019-03-01T07:01:00.202Z,3.40
2019-03-01T07:03:31.137Z,3.07
2019-03-01T07:06:03.558Z,3.27
2019-03-01T07:08:34.666Z,2.90
2019-03-01T07:11:05.199Z,4.10
2019-03-01T07:13:35.859Z,4.70
2019-03-01T07:16:06.823Z,3.43
2019-03-01T07:18:37.751Z,3.20
2019-03-01T07:21:08.545Z,3.30
2019-03-01T07:23:39.306Z,2.60
2019-03-01T07:26:10.251Z,3.50
2019-03-01T07:28:41.393Z,3.03
2019-03-01T07:31:12.341Z,2.90
2019-03-01T07:33:45.739Z,2.53
2019-03-01T07:36:16.225Z,3.63
2019-03-01T07:38:46.734Z,5.67
2019-03-01T07:41:17.627Z,2.70
2019-03-01T07:43:48.625Z,3.83
2019-03-01T07:46:19.618Z,3.73
2019-03-01T07:48:49.959Z,5.47
2019-03-01T07:51:21.106Z,6.40
2019-03-01T07:53:52.057Z,2.53
2019-03-01T07:56:23.408Z,3.00
2019-03-01T07:58:57.507Z,2.13
2019-03-01T08:01:29.195Z,1.40
2019-03-01T08:04:00.737Z,1.70
2019-03-01T08:06:31.099Z,4.80
2019-03-01T08:09:01.811Z,1.17
2019-03-01T08:11:34.183Z,0.97
2019-03-01T08:14:04.925Z,2.70
2019-03-01T08:16:35.866Z,0.80
2019-03-01T08:19:06.749Z,0.80
2019-03-01T08:21:37.703Z,1.43
2019-03-01T08:24:10.680Z,1.43
2019-03-01T08:26:39.662Z,0.80
2019-03-01T08:29:09.769Z,0.73
2019-03-01T08:31:40.249Z,1.00
2019-03-01T08:34:10.827Z,1.30
2019-03-01T08:36:42.564Z,0.70
2019-03-01T08:39:14.475Z,1.90
2019-03-01T08:41:45.504Z,3.10
2019-03-01T08:44:19.496Z,1.20
2019-03-01T08:46:49.003Z,1.77
2019-03-01T08:49:19.483Z,1.00
2019-03-01T08:51:51.356Z,0.97
2019-03-01T08:54:22.894Z,1.63
2019-03-01T08:56:56.224Z,0.70
2019-03-01T08:59:27.026Z,1.43
2019-03-01T09:01:57.296Z,2.90
2019-03-01T09:04:27.487Z,0.90
2019-03-01T09:06:58.422Z,0.93
2019-03-01T09:09:29.378Z,1.30
2019-03-01T09:12:00.502Z,1.93
2019-03-01T09:14:31.249Z,0.93
2019-03-01T09:17:02.586Z,0.80
2019-03-01T09:19:33.484Z,0.90
2019-03-01T09:22:04.893Z,1.00
2019-03-01T09:24:34.973Z,0.97
2019-03-01T09:27:05.974Z,1.37
2019-03-01T09:29:41.414Z,1.20
2019-03-01T09:32:09.033Z,1.10
2019-03-01T09:34:40.420Z,0.70
2019-03-01T09:37:10.959Z,1.63
2019-03-01T09:39:41.492Z,0.80
2019-03-01T09:42:12.401Z,1.97
2019-03-01T09:44:44.336Z,1.00
2019-03-01T09:47:14.933Z,1.23
2019-03-01T09:49:45.965Z,3.83
2019-03-01T09:52:16.226Z,0.80
2019-03-01T09:54:46.950Z,1.50
2019-03-01T09:57:17.687Z,1.17
2019-03-01T09:59:48.664Z,1.53
2019-03-01T10:02:19.323Z,2.40
2019-03-01T10:04:50.098Z,1.17
2019-03-01T10:07:21.246Z,1.00
2019-03-01T10:09:51.974Z,0.90
2019-03-01T10:12:22.928Z,1.53
2019-03-01T10:14:53.406Z,1.53
2019-03-01T10:17:24.562Z,1.47
2019-03-01T10:19:55.231Z,1.77
2019-03-01T10:22:26.097Z,1.70
2019-03-01T10:24:57.246Z,1.80
2019-03-01T10:27:28.186Z,1.50
2019-03-01T10:29:58.942Z,2.10
2019-03-01T10:32:29.695Z,2.00
2019-03-01T10:35:00.402Z,2.37
2019-03-01T10:37:30.880Z,3.17
2019-03-01T10:40:01.285Z,1.83
2019-03-01T10:42:34.057Z,2.60
2019-03-01T10:45:04.315Z,2.00
2019-03-01T10:47:35.930Z,3.20
2019-03-01T10:50:06.282Z,1.47
2019-03-01T10:52:37.160Z,4.27
2019-03-01T10:55:09.786Z,3.53
2019-03-01T10:57:40.887Z,6.17
2019-03-01T11:00:18.574Z,6.20
2019-03-01T11:02:49.593Z,5.30
2019-03-01T11:05:20.732Z,6.40
2019-03-01T11:07:53.512Z,7.07
2019-03-01T11:10:29.174Z,5.47
2019-03-01T11:13:00.317Z,5.60
2019-03-01T11:15:30.848Z,4.77
2019-03-01T11:18:01.779Z,6.30
2019-03-01T11:20:32.944Z,7.33
2019-03-01T11:23:03.677Z,3.63
2019-03-01T11:25:34.825Z,3.00
2019-03-01T11:28:05.865Z,2.93
2019-03-01T11:30:37.734Z,5.83
2019-03-01T11:33:07.971Z,4.67
2019-03-01T11:35:38.939Z,5.87
2019-03-01T11:38:11.155Z,5.60
2019-03-01T11:40:42.060Z,6.53
2019-03-01T11:43:13.271Z,5.93
2019-03-01T11:45:44.222Z,6.13
2019-03-01T11:48:15.363Z,4.17
2019-03-01T11:50:46.715Z,5.47
2019-03-01T11:53:17.661Z,6.83
2019-03-01T11:55:49.835Z,6.03
2019-03-01T11:58:20.309Z,4.30
2019-03-01T12:00:52.230Z,2.73
2019-03-01T12:03:23.857Z,6.27
2019-03-01T12:05:54.825Z,4.77
2019-03-01T12:08:25.463Z,8.17
2019-03-01T12:10:56.449Z,6.20
2019-03-01T12:13:26.598Z,8.97
2019-03-01T12:15:58.005Z,6.00
2019-03-01T12:18:28.684Z,5.80
2019-03-01T12:20:58.895Z,5.67
2019-03-01T12:23:29.351Z,8.30
2019-03-01T12:26:00.337Z,8.90
2019-03-01T12:28:30.913Z,12.77
2019-03-01T12:31:02.177Z,11.50
2019-03-01T12:33:33.784Z,8.53
2019-03-01T12:36:05.219Z,9.00
2019-03-01T12:38:36.061Z,9.43
2019-03-01T12:41:06.533Z,10.47
2019-03-01T12:43:39.597Z,9.77
2019-03-01T12:46:10.053Z,9.17
2019-03-01T12:48:40.409Z,10.13
2019-03-01T12:51:10.983Z,13.30
2019-03-01T12:53:41.882Z,10.63
2019-03-01T12:56:12.265Z,12.43
2019-03-01T12:58:42.615Z,17.40
2019-03-01T13:01:13.258Z,13.37
2019-03-01T13:03:44.638Z,13.40
2019-03-01T13:06:15.773Z,18.70
2019-03-01T13:08:47.766Z,13.90
2019-03-01T13:11:18.877Z,12.37
2019-03-01T13:13:49.476Z,15.40
2019-03-01T13:16:19.790Z,24.07
2019-03-01T13:18:51.495Z,19.63
2019-03-01T13:21:23.334Z,15.47
2019-03-01T13:23:54.228Z,16.10
2019-03-01T13:26:25.241Z,21.57
2019-03-01T13:28:56.233Z,21.60
2019-03-01T13:31:26.839Z,24.50
2019-03-01T13:33:57.848Z,22.37
2019-03-01T13:36:28.804Z,26.83
2019-03-01T13:38:59.682Z,23.97
2019-03-01T13:41:34.016Z,19.70
2019-03-01T13:44:04.275Z,23.63
2019-03-01T13:46:35.634Z,28.60
2019-03-01T13:49:06.581Z,18.97
2019-03-01T13:51:36.846Z,22.43
2019-03-01T13:54:09.001Z,20.43
2019-03-01T13:56:40.637Z,20.77
2019-03-01T13:59:11.992Z,26.13
2019-03-01T14:01:42.254Z,34.40
2019-03-01T14:04:13.270Z,30.03
2019-03-01T14:06:44.332Z,23.00
2019-03-01T14:09:15.922Z,20.73
2019-03-01T14:11:46.923Z,22.33
2019-03-01T14:14:17.857Z,24.43
2019-03-01T14:16:48.533Z,24.33
2019-03-01T14:19:19.998Z,35.03
2019-03-01T14:21:51.090Z,22.90
2019-03-01T14:24:21.184Z,16.80
2019-03-01T14:26:53.879Z,24.97
2019-03-01T14:29:24.548Z,19.73
2019-03-01T14:31:55.678Z,13.77
2019-03-01T14:34:28.017Z,29.90
2019-03-01T14:36:58.308Z,12.63
2019-03-01T14:39:28.804Z,14.50
2019-03-01T14:41:59.662Z,23.03
2019-03-01T14:44:30.618Z,24.87
2019-03-01T14:47:02.800Z,28.47
2019-03-01T14:49:33.719Z,22.40
2019-03-01T14:52:04.250Z,19.83
2019-03-01T14:54:34.985Z,17.13
2019-03-01T14:57:20.275Z,21.07
2019-03-01T15:00:14.975Z,22.83
2019-03-01T15:03:25.851Z,24.23
2019-03-01T15:05:57.205Z,29.67
2019-03-01T15:08:28.033Z,19.03
2019-03-01T15:11:00.778Z,19.37
2019-03-01T15:13:34.796Z,18.70
2019-03-01T15:16:07.734Z,24.20
2019-03-01T15:18:39.799Z,30.13
2019-03-01T15:21:11.013Z,13.67
2019-03-01T15:23:41.340Z,18.13
2019-03-01T15:26:13.147Z,19.20
2019-03-01T15:28:53.657Z,13.43
2019-03-01T15:31:20.096Z,17.13
2019-03-01T15:33:49.957Z,15.90
2019-03-01T15:36:21.227Z,17.13
2019-03-01T15:38:52.165Z,23.77
2019-03-01T15:41:24.893Z,18.00
2019-03-01T15:43:55.477Z,19.47
2019-03-01T15:46:27.603Z,22.13
2019-03-01T15:48:57.403Z,18.60
2019-03-01T15:51:28.313Z,25.90
2019-03-01T15:54:01.068Z,24.90
2019-03-01T15:56:31.423Z,21.50
2019-03-01T15:59:02.169Z,18.90
2019-03-01T16:01:33.277Z,18.33
2019-03-01T16:04:04.051Z,20.30
2019-03-01T16:06:34.999Z,39.27
2019-03-01T16:09:08.597Z,15.17
2019-03-01T16:11:39.385Z,21.23
2019-03-01T16:14:10.287Z,25.53
2019-03-01T16:16:41.633Z,20.27
2019-03-01T16:19:13.829Z,16.93
2019-03-01T16:21:44.369Z,19.87
2019-03-01T16:24:15.904Z,27.00
2019-03-01T16:26:46.843Z,20.83
2019-03-01T16:29:17.802Z,24.93
2019-03-01T16:31:48.345Z,16.43
2019-03-01T16:34:19.263Z,30.37
2019-03-01T16:36:54.197Z,25.93
2019-03-01T16:39:25.262Z,23.73
2019-03-01T16:41:56.593Z,24.13
2019-03-01T16:44:27.336Z,15.50
2019-03-01T16:46:58.075Z,12.10
2019-03-01T16:49:28.435Z,19.63
2019-03-01T16:51:59.751Z,11.23
2019-03-01T16:54:30.500Z,23.93
2019-03-01T16:57:01.447Z,18.60
2019-03-01T16:59:31.851Z,14.47
2019-03-01T17:02:06.201Z,11.67
2019-03-01T17:04:34.115Z,12.70
2019-03-01T17:07:05.413Z,26.00
2019-03-01T17:09:37.031Z,17.17
2019-03-01T17:12:08.078Z,16.57
2019-03-01T17:14:39.606Z,19.40
2019-03-01T17:17:10.893Z,15.07
2019-03-01T17:19:41.520Z,25.60
2019-03-01T17:22:11.886Z,24.33
2019-03-01T17:24:43.039Z,26.67
2019-03-01T17:27:13.278Z,10.90
2019-03-01T17:29:45.783Z,14.60
2019-03-01T17:32:16.892Z,15.23
2019-03-01T17:34:47.505Z,26.63
2019-03-01T17:37:18.472Z,20.07
2019-03-01T17:39:48.960Z,17.03
2019-03-01T17:42:20.670Z,20.33
2019-03-01T17:44:53.048Z,24.30
2019-03-01T17:47:23.124Z,34.97
2019-03-01T17:49:53.286Z,18.17
2019-03-01T17:52:24.174Z,20.33
2019-03-01T17:54:57.477Z,21.33
2019-03-01T17:57:29.188Z,17.57
2019-03-01T18:00:00.145Z,22.13
2019-03-01T18:02:30.462Z,19.03
2019-03-01T18:05:00.782Z,17.53
2019-03-01T18:07:31.314Z,15.63
2019-03-01T18:10:02.018Z,23.03
2019-03-01T18:12:34.190Z,19.90
2019-03-01T18:15:05.110Z,22.43
2019-03-01T18:17:36.503Z,11.63
2019-03-01T18:20:08.782Z,13.47
2019-03-01T18:22:42.514Z,20.40
2019-03-01T18:25:12.771Z,16.47
2019-03-01T18:27:43.375Z,17.77
2019-03-01T18:30:19.852Z,12.23
2019-03-01T18:32:49.584Z,11.40
2019-03-01T18:35:20.430Z,12.00
2019-03-01T18:37:51.440Z,17.60
2019-03-01T18:40:23.098Z,21.47
2019-03-01T18:42:54.164Z,11.40
2019-03-01T18:45:25.311Z,17.57
2019-03-01T18:47:56.043Z,11.87
2019-03-01T18:50:31.431Z,15.03
2019-03-01T18:53:03.847Z,21.50
2019-03-01T18:55:34.815Z,15.00
2019-03-01T18:58:05.544Z,17.47
2019-03-01T19:00:37.319Z,11.37
2019-03-01T19:03:08.203Z,12.47
2019-03-01T19:05:40.252Z,8.60
2019-03-01T19:08:11.973Z,13.40
2019-03-01T19:10:42.946Z,10.20
2019-03-01T19:13:13.415Z,6.07
2019-03-01T19:15:44.209Z,10.57
2019-03-01T19:18:16.849Z,8.83
2019-03-01T19:20:48.149Z,3.63
2019-03-01T19:23:18.609Z,4.20
2019-03-01T19:25:49.407Z,7.87
2019-03-01T19:28:19.760Z,4.07
2019-03-01T19:30:50.613Z,4.80
2019-03-01T19:33:21.821Z,5.33
2019-03-01T19:35:52.715Z,9.27
2019-03-01T19:38:25.094Z,8.80
2019-03-01T19:40:55.483Z,3.77
2019-03-01T19:43:26.418Z,5.20
2019-03-01T19:45:57.567Z,5.33
2019-03-01T19:48:27.695Z,5.17
2019-03-01T19:51:01.600Z,4.13
2019-03-01T19:53:31.661Z,6.33
2019-03-01T19:56:02.345Z,3.23
2019-03-01T19:58:32.977Z,3.00
2019-03-01T20:01:04.253Z,4.47
2019-03-01T20:03:34.583Z,5.20
2019-03-01T20:06:08.062Z,6.53
2019-03-01T20:08:38.111Z,6.07
2019-03-01T20:11:09.281Z,6.63
2019-03-01T20:13:41.861Z,4.83
2019-03-01T20:16:12.421Z,7.33
2019-03-01T20:18:45.018Z,6.43
2019-03-01T20:21:15.693Z,3.67
2019-03-01T20:23:46.639Z,9.63
2019-03-01T20:26:17.772Z,14.37
2019-03-01T20:28:50.496Z,5.00
2019-03-01T20:31:20.747Z,8.87
2019-03-01T20:33:51.365Z,6.77
2019-03-01T20:36:22.168Z,8.63
2019-03-01T20:38:53.319Z,9.17
2019-03-01T20:41:24.258Z,6.40
2019-03-01T20:43:54.996Z,7.80
2019-03-01T20:46:25.526Z,10.00
2019-03-01T20:48:56.692Z,11.10
2019-03-01T20:51:28.010Z,8.10
2019-03-01T20:54:01.027Z,5.67
2019-03-01T20:56:31.465Z,5.23
2019-03-01T20:59:02.296Z,9.43
2019-03-01T21:01:33.719Z,6.33
2019-03-01T21:04:06.235Z,8.97
2019-03-01T21:06:37.416Z,5.43
2019-03-01T21:09:09.754Z,9.63
2019-03-01T21:11:41.708Z,5.33
2019-03-01T21:14:13.686Z,5.63
2019-03-01T21:16:44.906Z,7.77
2019-03-01T21:19:16.601Z,8.60
2019-03-01T21:21:47.334Z,5.70
2019-03-01T21:24:17.666Z,7.03
2019-03-01T21:26:51.212Z,8.57
2019-03-01T21:29:20.656Z,11.67
2019-03-01T21:31:51.527Z,9.47
2019-03-01T21:34:22.459Z,10.50
2019-03-01T21:36:53.402Z,9.87
2019-03-01T21:39:25.017Z,9.43
2019-03-01T21:41:55.782Z,7.13
2019-03-01T21:44:26.850Z,8.43
2019-03-01T21:47:00.818Z,4.60
2019-03-01T21:49:32.224Z,6.40
2019-03-01T21:52:03.096Z,12.57
2019-03-01T21:54:33.561Z,9.43
2019-03-01T21:57:04.226Z,9.30
2019-03-01T21:59:34.866Z,7.97
2019-03-01T22:02:05.910Z,9.13
2019-03-01T22:04:37.424Z,9.10
2019-03-01T22:07:08.628Z,15.03
2019-03-01T22:09:39.742Z,6.00
2019-03-01T22:12:10.514Z,6.90
2019-03-01T22:14:41.238Z,7.80
2019-03-01T22:17:13.554Z,4.40
2019-03-01T22:19:44.406Z,19.67
2019-03-01T22:22:15.018Z,8.50
2019-03-01T22:24:45.640Z,9.20
2019-03-01T22:27:16.098Z,6.90
2019-03-01T22:29:47.347Z,8.50
2019-03-01T22:32:19.266Z,5.50
2019-03-01T22:34:50.119Z,8.53
2019-03-01T22:37:20.684Z,4.57
2019-03-01T22:39:52.303Z,9.43
2019-03-01T22:42:23.864Z,9.20
2019-03-01T22:44:54.644Z,14.00
2019-03-01T22:47:25.334Z,4.77
2019-03-01T22:49:56.078Z,12.30
2019-03-01T22:52:30.363Z,9.20
2019-03-01T22:55:01.592Z,9.20
2019-03-01T22:57:32.186Z,8.70
2019-03-01T23:00:03.159Z,6.83
2019-03-01T23:02:40.313Z,10.03
2019-03-01T23:05:10.196Z,10.30
2019-03-01T23:07:40.880Z,20.43
2019-03-01T23:10:11.772Z,12.50
2019-03-01T23:12:43.741Z,12.97
2019-03-01T23:15:15.567Z,7.40
2019-03-01T23:17:46.291Z,9.00
2019-03-01T23:20:16.614Z,14.20
2019-03-01T23:22:47.091Z,8.80
2019-03-01T23:25:18.096Z,10.73
2019-03-01T23:27:48.854Z,8.97
2019-03-01T23:30:19.391Z,8.80
2019-03-01T23:32:52.664Z,13.80
2019-03-01T23:35:22.551Z,11.60
2019-03-01T23:37:53.427Z,9.27
2019-03-01T23:40:24.389Z,8.87
2019-03-01T23:42:56.233Z,6.10
2019-03-01T23:45:28.043Z,8.47
2019-03-01T23:47:59.252Z,15.57
2019-03-01T23:50:31.522Z,7.67
2019-03-01T23:53:02.777Z,8.67
2019-03-01T23:55:34.136Z,15.17
2019-03-01T23:58:06.302Z,9.67
